sensor_id;sensor_type;location;lat;lon;timestamp;pressure;altitude;pressure_sealevel;temperature;humidity
72855;BME280;60991;51.278;22.550;2023-05-20T00:00:48;100182.69;;;14.42;77.45
72855;BME280;60991;51.278;22.550;2023-05-20T00:02:18;100186.84;;;14.38;77.76
72855;BME280;60991;51.278;22.550;2023-05-20T00:03:48;100181.97;;;14.35;77.91
72855;BME280;60991;51.278;22.550;2023-05-20T00:05:18;100178.16;;;14.31;78.13
72855;BME280;60991;51.278;22.550;2023-05-20T00:06:49;100182.41;;;14.27;78.09
72855;BME280;60991;51.278;22.550;2023-05-20T00:08:19;100185.56;;;14.24;78.30
72855;BME280;60991;51.278;22.550;2023-05-20T00:09:49;100178.25;;;14.19;78.40
72855;BME280;60991;51.278;22.550;2023-05-20T00:11:19;100182.44;;;14.15;78.46
72855;BME280;60991;51.278;22.550;2023-05-20T00:12:49;100177.75;;;14.06;78.75
72855;BME280;60991;51.278;22.550;2023-05-20T00:14:20;100179.03;;;14.03;78.95
72855;BME280;60991;51.278;22.550;2023-05-20T00:15:51;100176.84;;;14.00;78.96
72855;BME280;60991;51.278;22.550;2023-05-20T00:17:21;100171.19;;;13.97;79.28
72855;BME280;60991;51.278;22.550;2023-05-20T00:18:51;100175.72;;;13.96;79.16
72855;BME280;60991;51.278;22.550;2023-05-20T00:20:22;100174.31;;;13.94;79.19
72855;BME280;60991;51.278;22.550;2023-05-20T00:21:52;100171.66;;;13.94;79.12
72855;BME280;60991;51.278;22.550;2023-05-20T00:23:22;100168.16;;;13.93;79.53
72855;BME280;60991;51.278;22.550;2023-05-20T00:24:52;100182.09;;;13.95;79.24
72855;BME280;60991;51.278;22.550;2023-05-20T00:26:22;100173.03;;;13.96;79.57
72855;BME280;60991;51.278;22.550;2023-05-20T00:27:53;100167.69;;;13.96;79.22
72855;BME280;60991;51.278;22.550;2023-05-20T00:29:23;100165.03;;;13.96;79.00
72855;BME280;60991;51.278;22.550;2023-05-20T00:30:53;100165.03;;;13.96;78.96
72855;BME280;60991;51.278;22.550;2023-05-20T00:32:23;100165.25;;;13.95;79.31
72855;BME280;60991;51.278;22.550;2023-05-20T00:33:54;100165.50;;;13.93;79.40
72855;BME280;60991;51.278;22.550;2023-05-20T00:35:24;100164.44;;;13.94;79.41
72855;BME280;60991;51.278;22.550;2023-05-20T00:36:54;100165.59;;;13.98;79.16
72855;BME280;60991;51.278;22.550;2023-05-20T00:38:24;100159.22;;;13.99;79.19
72855;BME280;60991;51.278;22.550;2023-05-20T00:39:55;100161.66;;;14.01;79.30
72855;BME280;60991;51.278;22.550;2023-05-20T00:41:25;100163.25;;;14.02;78.97
72855;BME280;60991;51.278;22.550;2023-05-20T00:42:56;100160.84;;;14.00;79.09
72855;BME280;60991;51.278;22.550;2023-05-20T00:44:26;100164.56;;;13.99;79.33
72855;BME280;60991;51.278;22.550;2023-05-20T00:45:56;100161.88;;;13.99;78.95
72855;BME280;60991;51.278;22.550;2023-05-20T00:47:31;100168.28;;;13.98;78.73
72855;BME280;60991;51.278;22.550;2023-05-20T00:49:02;100158.63;;;13.97;79.04
72855;BME280;60991;51.278;22.550;2023-05-20T00:50:32;100164.56;;;13.99;78.55
72855;BME280;60991;51.278;22.550;2023-05-20T00:52:03;100161.31;;;13.97;78.99
72855;BME280;60991;51.278;22.550;2023-05-20T00:53:34;100165.59;;;13.98;78.75
72855;BME280;60991;51.278;22.550;2023-05-20T00:55:05;100167.47;;;13.98;79.13
72855;BME280;60991;51.278;22.550;2023-05-20T00:56:36;100162.34;;;13.96;78.66
72855;BME280;60991;51.278;22.550;2023-05-20T00:58:06;100160.75;;;13.95;78.45
72855;BME280;60991;51.278;22.550;2023-05-20T00:59:37;100160.16;;;13.93;78.72
72855;BME280;60991;51.278;22.550;2023-05-20T01:01:07;100163.34;;;13.90;78.72
72855;BME280;60991;51.278;22.550;2023-05-20T01:02:37;100159.03;;;13.89;78.64
72855;BME280;60991;51.278;22.550;2023-05-20T01:04:08;100154.44;;;13.84;78.75
72855;BME280;60991;51.278;22.550;2023-05-20T01:05:38;100160.34;;;13.86;78.97
72855;BME280;60991;51.278;22.550;2023-05-20T01:07:08;100158.25;;;13.89;78.88
72855;BME280;60991;51.278;22.550;2023-05-20T01:08:39;100158.81;;;13.91;79.03
72855;BME280;60991;51.278;22.550;2023-05-20T01:10:09;100158.31;;;13.94;78.64
72855;BME280;60991;51.278;22.550;2023-05-20T01:11:51;100154.94;;;13.98;78.52
72855;BME280;60991;51.278;22.550;2023-05-20T01:13:28;100159.53;;;14.03;78.46
72855;BME280;60991;51.278;22.550;2023-05-20T01:15:06;100155.03;;;14.03;78.04
72855;BME280;60991;51.278;22.550;2023-05-20T01:16:37;100155.84;;;14.04;77.73
72855;BME280;60991;51.278;22.550;2023-05-20T01:18:08;100156.63;;;14.04;77.83
72855;BME280;60991;51.278;22.550;2023-05-20T01:19:41;100160.03;;;14.00;77.38
72855;BME280;60991;51.278;22.550;2023-05-20T01:21:12;100150.41;;;13.99;77.33
72855;BME280;60991;51.278;22.550;2023-05-20T01:24:18;100155.06;;;13.92;77.58
72855;BME280;60991;51.278;22.550;2023-05-20T01:25:48;100158.72;;;13.85;77.86
72855;BME280;60991;51.278;22.550;2023-05-20T01:27:19;100157.66;;;13.86;77.90
72855;BME280;60991;51.278;22.550;2023-05-20T01:28:50;100162.91;;;13.81;77.71
72855;BME280;60991;51.278;22.550;2023-05-20T01:30:21;100160.47;;;13.80;77.50
72855;BME280;60991;51.278;22.550;2023-05-20T01:31:52;100158.50;;;13.75;77.07
72855;BME280;60991;51.278;22.550;2023-05-20T01:33:24;100154.97;;;13.70;77.15
72855;BME280;60991;51.278;22.550;2023-05-20T01:34:55;100162.88;;;13.65;77.49
72855;BME280;60991;51.278;22.550;2023-05-20T01:36:27;100146.75;;;13.60;77.52
72855;BME280;60991;51.278;22.550;2023-05-20T01:37:58;100159.50;;;13.58;78.09
72855;BME280;60991;51.278;22.550;2023-05-20T01:39:30;100154.91;;;13.53;78.01
72855;BME280;60991;51.278;22.550;2023-05-20T01:41:01;100150.63;;;13.52;78.06
72855;BME280;60991;51.278;22.550;2023-05-20T01:42:34;100153.88;;;13.54;78.28
72855;BME280;60991;51.278;22.550;2023-05-20T01:44:04;100159.50;;;13.58;78.34
72855;BME280;60991;51.278;22.550;2023-05-20T01:45:35;100156.94;;;13.63;78.52
72855;BME280;60991;51.278;22.550;2023-05-20T01:47:05;100147.09;;;13.63;78.05
72855;BME280;60991;51.278;22.550;2023-05-20T01:48:35;100148.47;;;13.66;78.06
72855;BME280;60991;51.278;22.550;2023-05-20T01:50:06;100149.06;;;13.68;78.15
72855;BME280;60991;51.278;22.550;2023-05-20T01:51:36;100145.34;;;13.69;78.48
72855;BME280;60991;51.278;22.550;2023-05-20T01:53:06;100145.69;;;13.72;78.45
72855;BME280;60991;51.278;22.550;2023-05-20T01:54:36;100145.41;;;13.74;78.55
72855;BME280;60991;51.278;22.550;2023-05-20T01:56:07;100141.69;;;13.75;78.37
72855;BME280;60991;51.278;22.550;2023-05-20T01:57:37;100135.81;;;13.73;78.58
72855;BME280;60991;51.278;22.550;2023-05-20T01:59:07;100141.69;;;13.75;78.41
72855;BME280;60991;51.278;22.550;2023-05-20T02:00:37;100139.03;;;13.75;78.38
72855;BME280;60991;51.278;22.550;2023-05-20T02:02:08;100138.53;;;13.78;78.31
72855;BME280;60991;51.278;22.550;2023-05-20T02:03:38;100132.97;;;13.79;78.08
72855;BME280;60991;51.278;22.550;2023-05-20T02:05:08;100139.34;;;13.78;78.02
72855;BME280;60991;51.278;22.550;2023-05-20T02:06:39;100137.75;;;13.77;77.96
72855;BME280;60991;51.278;22.550;2023-05-20T02:08:09;100136.69;;;13.78;77.95
72855;BME280;60991;51.278;22.550;2023-05-20T02:09:39;100140.97;;;13.79;77.96
72855;BME280;60991;51.278;22.550;2023-05-20T02:11:09;100137.03;;;13.82;77.94
72855;BME280;60991;51.278;22.550;2023-05-20T02:12:39;100138.66;;;13.83;77.75
72855;BME280;60991;51.278;22.550;2023-05-20T02:14:10;100141.06;;;13.84;78.03
72855;BME280;60991;51.278;22.550;2023-05-20T02:15:41;100143.28;;;13.88;77.78
72855;BME280;60991;51.278;22.550;2023-05-20T02:17:14;100144.66;;;13.90;77.73
72855;BME280;60991;51.278;22.550;2023-05-20T02:18:45;100140.38;;;13.89;77.76
72855;BME280;60991;51.278;22.550;2023-05-20T02:20:15;100147.31;;;13.90;77.83
72855;BME280;60991;51.278;22.550;2023-05-20T02:21:45;100139.31;;;13.90;77.63
72855;BME280;60991;51.278;22.550;2023-05-20T02:23:15;100140.13;;;13.91;77.87
72855;BME280;60991;51.278;22.550;2023-05-20T02:24:46;100141.47;;;13.93;77.71
72855;BME280;60991;51.278;22.550;2023-05-20T02:26:16;100140.19;;;13.96;77.28
72855;BME280;60991;51.278;22.550;2023-05-20T02:27:46;100147.63;;;13.94;77.39
72855;BME280;60991;51.278;22.550;2023-05-20T02:29:16;100149.50;;;13.93;77.48
72855;BME280;60991;51.278;22.550;2023-05-20T02:30:47;100146.00;;;13.93;77.57
72855;BME280;60991;51.278;22.550;2023-05-20T02:32:17;100141.31;;;13.83;78.08
72855;BME280;60991;51.278;22.550;2023-05-20T02:33:47;100143.28;;;13.88;78.18
72855;BME280;60991;51.278;22.550;2023-05-20T02:35:17;100146.31;;;13.79;78.02
72855;BME280;60991;51.278;22.550;2023-05-20T02:36:47;100148.66;;;13.76;78.26
72855;BME280;60991;51.278;22.550;2023-05-20T02:38:18;100142.03;;;13.78;78.49
72855;BME280;60991;51.278;22.550;2023-05-20T02:39:48;100150.00;;;13.90;78.14
72855;BME280;60991;51.278;22.550;2023-05-20T02:41:18;100140.44;;;13.94;77.49
72855;BME280;60991;51.278;22.550;2023-05-20T02:42:48;100146.91;;;13.98;77.40
72855;BME280;60991;51.278;22.550;2023-05-20T02:44:20;100146.91;;;13.98;77.29
72855;BME280;60991;51.278;22.550;2023-05-20T02:45:50;100149.81;;;13.97;77.18
72855;BME280;60991;51.278;22.550;2023-05-20T02:47:20;100147.16;;;13.97;77.26
72855;BME280;60991;51.278;22.550;2023-05-20T02:48:50;100145.53;;;13.96;77.53
72855;BME280;60991;51.278;22.550;2023-05-20T02:50:20;100144.47;;;13.97;77.08
72855;BME280;60991;51.278;22.550;2023-05-20T02:51:51;100145.53;;;13.96;77.36
72855;BME280;60991;51.278;22.550;2023-05-20T02:53:21;100146.91;;;13.98;77.37
72855;BME280;60991;51.278;22.550;2023-05-20T02:54:51;100149.34;;;14.00;77.42
72855;BME280;60991;51.278;22.550;2023-05-20T02:56:21;100139.72;;;13.99;77.43
72855;BME280;60991;51.278;22.550;2023-05-20T02:57:51;100144.81;;;14.00;77.41
72855;BME280;60991;51.278;22.550;2023-05-20T02:59:22;100149.91;;;14.02;77.35
72855;BME280;60991;51.278;22.550;2023-05-20T03:00:52;100149.91;;;14.02;77.30
72855;BME280;60991;51.278;22.550;2023-05-20T03:02:22;100151.06;;;14.06;77.07
72855;BME280;60991;51.278;22.550;2023-05-20T03:03:52;100146.78;;;14.05;77.47
72855;BME280;60991;51.278;22.550;2023-05-20T03:05:22;100148.63;;;14.04;77.46
72855;BME280;60991;51.278;22.550;2023-05-20T03:06:53;100154.53;;;14.06;77.41
72855;BME280;60991;51.278;22.550;2023-05-20T03:08:23;100147.00;;;14.03;77.40
72855;BME280;60991;51.278;22.550;2023-05-20T03:09:53;100148.41;;;14.06;77.63
72855;BME280;60991;51.278;22.550;2023-05-20T03:11:24;100145.78;;;14.11;77.24
72855;BME280;60991;51.278;22.550;2023-05-20T03:12:54;100147.09;;;14.08;77.55
72855;BME280;60991;51.278;22.550;2023-05-20T03:14:24;100143.13;;;14.11;77.34
72855;BME280;60991;51.278;22.550;2023-05-20T03:15:54;100146.69;;;14.16;77.09
72855;BME280;60991;51.278;22.550;2023-05-20T03:17:24;100144.03;;;14.16;77.15
72855;BME280;60991;51.278;22.550;2023-05-20T03:18:55;100147.50;;;14.17;77.20
72855;BME280;60991;51.278;22.550;2023-05-20T03:20:25;100145.63;;;14.17;77.26
72855;BME280;60991;51.278;22.550;2023-05-20T03:21:55;100150.50;;;14.20;77.12
72855;BME280;60991;51.278;22.550;2023-05-20T03:23:25;100147.03;;;14.20;77.05
72855;BME280;60991;51.278;22.550;2023-05-20T03:24:55;100152.03;;;14.16;76.99
72855;BME280;60991;51.278;22.550;2023-05-20T03:26:26;100152.03;;;14.16;77.20
72855;BME280;60991;51.278;22.550;2023-05-20T03:27:56;100148.97;;;14.08;77.41
72855;BME280;60991;51.278;22.550;2023-05-20T03:29:26;100145.78;;;14.11;77.41
72855;BME280;60991;51.278;22.550;2023-05-20T03:30:56;100145.31;;;14.14;77.76
72855;BME280;60991;51.278;22.550;2023-05-20T03:32:27;100150.97;;;14.17;77.57
72855;BME280;60991;51.278;22.550;2023-05-20T03:33:57;100163.63;;;14.22;77.48
72855;BME280;60991;51.278;22.550;2023-05-20T03:35:27;100155.13;;;14.25;77.18
72855;BME280;60991;51.278;22.550;2023-05-20T03:36:57;100162.31;;;14.25;77.33
72855;BME280;60991;51.278;22.550;2023-05-20T03:38:27;100164.19;;;14.24;77.34
72855;BME280;60991;51.278;22.550;2023-05-20T03:39:58;100162.38;;;14.30;76.97
72855;BME280;60991;51.278;22.550;2023-05-20T03:41:28;100164.56;;;14.33;76.70
72855;BME280;60991;51.278;22.550;2023-05-20T03:42:58;100164.09;;;14.36;76.84
72855;BME280;60991;51.278;22.550;2023-05-20T03:44:28;100168.16;;;14.38;76.50
72855;BME280;60991;51.278;22.550;2023-05-20T03:45:58;100169.56;;;14.41;76.73
72855;BME280;60991;51.278;22.550;2023-05-20T03:47:29;100175.09;;;14.39;76.68
72855;BME280;60991;51.278;22.550;2023-05-20T03:48:59;100169.78;;;14.39;76.59
72855;BME280;60991;51.278;22.550;2023-05-20T03:50:29;100178.13;;;14.43;76.47
72855;BME280;60991;51.278;22.550;2023-05-20T03:51:59;100169.56;;;14.41;76.63
72855;BME280;60991;51.278;22.550;2023-05-20T03:53:29;100173.25;;;14.40;76.60
72855;BME280;60991;51.278;22.550;2023-05-20T03:55:00;100171.63;;;14.39;76.71
72855;BME280;60991;51.278;22.550;2023-05-20T03:56:30;100175.09;;;14.39;76.75
72855;BME280;60991;51.278;22.550;2023-05-20T03:58:00;100177.44;;;14.36;76.70
72855;BME280;60991;51.278;22.550;2023-05-20T03:59:30;100175.09;;;14.39;76.82
72855;BME280;60991;51.278;22.550;2023-05-20T04:01:01;100176.75;;;14.40;76.65
72855;BME280;60991;51.278;22.550;2023-05-20T04:02:31;100171.63;;;14.39;76.61
72855;BME280;60991;51.278;22.550;2023-05-20T04:04:01;100175.09;;;14.39;76.70
72855;BME280;60991;51.278;22.550;2023-05-20T04:05:31;100171.19;;;14.42;76.74
72855;BME280;60991;51.278;22.550;2023-05-20T04:07:02;100174.31;;;14.39;76.61
72855;BME280;60991;51.278;22.550;2023-05-20T04:08:32;100174.09;;;14.40;76.45
72855;BME280;60991;51.278;22.550;2023-05-20T04:10:03;100171.63;;;14.39;76.76
72855;BME280;60991;51.278;22.550;2023-05-20T04:11:33;100177.34;;;14.42;76.26
72855;BME280;60991;51.278;22.550;2023-05-20T04:13:04;100183.94;;;14.40;76.75
72855;BME280;60991;51.278;22.550;2023-05-20T04:14:34;100182.44;;;14.44;76.84
72855;BME280;60991;51.278;22.550;2023-05-20T04:16:04;100189.69;;;14.48;76.48
72855;BME280;60991;51.278;22.550;2023-05-20T04:17:35;100182.81;;;14.52;76.16
72855;BME280;60991;51.278;22.550;2023-05-20T04:19:05;100186.63;;;14.57;76.03
72855;BME280;60991;51.278;22.550;2023-05-20T04:20:35;100185.00;;;14.55;76.16
72855;BME280;60991;51.278;22.550;2023-05-20T04:22:06;100194.66;;;14.57;75.89
72855;BME280;60991;51.278;22.550;2023-05-20T04:23:36;100193.13;;;14.61;76.19
72855;BME280;60991;51.278;22.550;2023-05-20T04:25:06;100188.34;;;14.63;76.28
72855;BME280;60991;51.278;22.550;2023-05-20T04:26:37;100196.13;;;14.64;76.22
72855;BME280;60991;51.278;22.550;2023-05-20T04:28:07;100189.72;;;14.65;76.15
72855;BME280;60991;51.278;22.550;2023-05-20T04:29:37;100196.16;;;14.69;75.87
72855;BME280;60991;51.278;22.550;2023-05-20T04:31:07;100190.81;;;14.69;75.85
72855;BME280;60991;51.278;22.550;2023-05-20T04:32:38;100195.34;;;14.69;76.02
72855;BME280;60991;51.278;22.550;2023-05-20T04:34:08;100196.41;;;14.68;75.96
72855;BME280;60991;51.278;22.550;2023-05-20T04:35:38;100190.00;;;14.69;76.38
72855;BME280;60991;51.278;22.550;2023-05-20T04:37:08;100189.53;;;14.72;76.06
72855;BME280;60991;51.278;22.550;2023-05-20T04:38:38;100192.78;;;14.74;75.84
72855;BME280;60991;51.278;22.550;2023-05-20T04:40:09;100193.59;;;14.74;76.21
72855;BME280;60991;51.278;22.550;2023-05-20T04:41:39;100193.34;;;14.76;76.15
72855;BME280;60991;51.278;22.550;2023-05-20T04:43:10;100196.09;;;14.81;75.90
72855;BME280;60991;51.278;22.550;2023-05-20T04:44:40;100191.03;;;14.84;75.81
72855;BME280;60991;51.278;22.550;2023-05-20T04:46:10;100194.03;;;14.88;75.79
72855;BME280;60991;51.278;22.550;2023-05-20T04:47:40;100188.22;;;14.91;75.96
72855;BME280;60991;51.278;22.550;2023-05-20T04:49:11;100190.16;;;14.96;75.72
72855;BME280;60991;51.278;22.550;2023-05-20T04:50:41;100185.13;;;14.99;75.90
72855;BME280;60991;51.278;22.550;2023-05-20T04:52:11;100194.78;;;15.00;76.15
72855;BME280;60991;51.278;22.550;2023-05-20T04:53:41;100182.50;;;15.04;76.27
72855;BME280;60991;51.278;22.550;2023-05-20T04:55:12;100186.78;;;15.05;76.30
72855;BME280;60991;51.278;22.550;2023-05-20T04:56:43;100180.38;;;15.06;76.37
72855;BME280;60991;51.278;22.550;2023-05-20T04:58:13;100185.75;;;15.06;76.69
72855;BME280;60991;51.278;22.550;2023-05-20T04:59:43;100188.75;;;15.10;76.61
72855;BME280;60991;51.278;22.550;2023-05-20T05:01:13;100186.69;;;15.17;76.58
72855;BME280;60991;51.278;22.550;2023-05-20T05:02:44;100190.19;;;15.17;76.54
72855;BME280;60991;51.278;22.550;2023-05-20T05:04:14;100191.56;;;15.20;76.45
72855;BME280;60991;51.278;22.550;2023-05-20T05:05:44;100185.69;;;15.23;76.39
72855;BME280;60991;51.278;22.550;2023-05-20T05:07:14;100190.50;;;15.21;76.40
72855;BME280;60991;51.278;22.550;2023-05-20T05:08:44;100186.50;;;15.23;76.38
72855;BME280;60991;51.278;22.550;2023-05-20T05:10:15;100186.47;;;15.18;76.76
72855;BME280;60991;51.278;22.550;2023-05-20T05:11:45;100184.03;;;15.17;77.04
72855;BME280;60991;51.278;22.550;2023-05-20T05:13:15;100184.03;;;15.17;76.95
72855;BME280;60991;51.278;22.550;2023-05-20T05:14:45;100188.94;;;15.25;76.77
72855;BME280;60991;51.278;22.550;2023-05-20T05:16:15;100184.94;;;15.28;76.67
72855;BME280;60991;51.278;22.550;2023-05-20T05:17:46;100190.38;;;15.33;76.66
72855;BME280;60991;51.278;22.550;2023-05-20T05:19:16;100188.44;;;15.28;76.96
72855;BME280;60991;51.278;22.550;2023-05-20T05:20:46;100181.78;;;15.31;77.07
72855;BME280;60991;51.278;22.550;2023-05-20T05:22:16;100184.94;;;15.28;77.13
72855;BME280;60991;51.278;22.550;2023-05-20T05:23:47;100182.09;;;15.34;77.09
72855;BME280;60991;51.278;22.550;2023-05-20T05:25:17;100183.28;;;15.43;76.83
72855;BME280;60991;51.278;22.550;2023-05-20T05:26:47;100188.38;;;15.45;76.43
72855;BME280;60991;51.278;22.550;2023-05-20T05:28:17;100186.75;;;15.44;76.82
72855;BME280;60991;51.278;22.550;2023-05-20T05:29:47;100173.94;;;15.46;76.65
72855;BME280;60991;51.278;22.550;2023-05-20T05:31:18;100179.59;;;15.49;76.72
72855;BME280;60991;51.278;22.550;2023-05-20T05:32:48;100182.53;;;15.48;76.83
72855;BME280;60991;51.278;22.550;2023-05-20T05:34:18;100178.88;;;15.54;76.64
72855;BME280;60991;51.278;22.550;2023-05-20T05:35:49;100187.38;;;15.51;76.81
72855;BME280;60991;51.278;22.550;2023-05-20T05:37:20;100187.13;;;15.52;76.64
72855;BME280;60991;51.278;22.550;2023-05-20T05:38:50;100193.06;;;15.54;76.59
72855;BME280;60991;51.278;22.550;2023-05-20T05:40:20;100182.94;;;15.56;76.41
72855;BME280;60991;51.278;22.550;2023-05-20T05:41:50;100189.38;;;15.61;76.55
72855;BME280;60991;51.278;22.550;2023-05-20T05:43:21;100186.44;;;15.57;76.67
72855;BME280;60991;51.278;22.550;2023-05-20T05:44:51;100183.50;;;15.58;76.56
72855;BME280;60991;51.278;22.550;2023-05-20T05:46:21;100189.63;;;15.59;76.81
72855;BME280;60991;51.278;22.550;2023-05-20T05:47:51;100191.25;;;15.60;76.85
72855;BME280;60991;51.278;22.550;2023-05-20T05:49:21;100194.00;;;15.65;76.74
72855;BME280;60991;51.278;22.550;2023-05-20T05:50:52;100195.38;;;15.68;76.76
72855;BME280;60991;51.278;22.550;2023-05-20T05:52:22;100191.06;;;15.67;76.92
72855;BME280;60991;51.278;22.550;2023-05-20T05:53:52;100197.53;;;15.71;76.78
72855;BME280;60991;51.278;22.550;2023-05-20T05:55:22;100206.38;;;15.71;76.88
72855;BME280;60991;51.278;22.550;2023-05-20T05:56:53;100201.28;;;15.70;77.01
72855;BME280;60991;51.278;22.550;2023-05-20T05:58:23;100207.44;;;15.70;77.21
72855;BME280;60991;51.278;22.550;2023-05-20T05:59:53;100205.09;;;15.74;76.78
72855;BME280;60991;51.278;22.550;2023-05-20T06:01:23;100207.53;;;15.80;76.77
72855;BME280;60991;51.278;22.550;2023-05-20T06:02:54;100209.47;;;15.85;76.49
72855;BME280;60991;51.278;22.550;2023-05-20T06:04:24;100205.00;;;15.90;76.13
72855;BME280;60991;51.278;22.550;2023-05-20T06:05:54;100214.56;;;15.86;76.27
72855;BME280;60991;51.278;22.550;2023-05-20T06:07:24;100207.59;;;15.85;76.29
72855;BME280;60991;51.278;22.550;2023-05-20T06:08:54;100201.19;;;15.86;76.11
72855;BME280;60991;51.278;22.550;2023-05-20T06:10:25;100212.78;;;15.92;76.40
72855;BME280;60991;51.278;22.550;2023-05-20T06:11:55;100208.22;;;15.92;76.62
72855;BME280;60991;51.278;22.550;2023-05-20T06:13:25;100205.53;;;15.92;76.46
72855;BME280;60991;51.278;22.550;2023-05-20T06:14:56;100211.19;;;15.96;76.46
72855;BME280;60991;51.278;22.550;2023-05-20T06:16:26;100206.13;;;16.00;76.42
72855;BME280;60991;51.278;22.550;2023-05-20T06:17:56;100198.41;;;16.03;76.49
72855;BME280;60991;51.278;22.550;2023-05-20T06:19:26;100205.13;;;16.06;76.67
72855;BME280;60991;51.278;22.550;2023-05-20T06:20:57;100195.47;;;16.05;76.51
72855;BME280;60991;51.278;22.550;2023-05-20T06:22:27;100199.53;;;16.07;76.67
72855;BME280;60991;51.278;22.550;2023-05-20T06:23:57;100197.72;;;16.13;76.53
72855;BME280;60991;51.278;22.550;2023-05-20T06:25:28;100198.31;;;16.20;76.54
72855;BME280;60991;51.278;22.550;2023-05-20T06:26:58;100208.81;;;16.26;76.39
72855;BME280;60991;51.278;22.550;2023-05-20T06:28:29;100198.09;;;16.26;76.56
72855;BME280;60991;51.278;22.550;2023-05-20T06:29:59;100204.81;;;16.29;76.46
72855;BME280;60991;51.278;22.550;2023-05-20T06:31:29;100197.88;;;16.33;76.52
72855;BME280;60991;51.278;22.550;2023-05-20T06:33:00;100195.25;;;16.38;76.45
72855;BME280;60991;51.278;22.550;2023-05-20T06:34:30;100199.28;;;16.41;76.30
72855;BME280;60991;51.278;22.550;2023-05-20T06:36:00;100197.72;;;16.45;76.21
72855;BME280;60991;51.278;22.550;2023-05-20T06:37:30;100197.47;;;16.51;76.43
72855;BME280;60991;51.278;22.550;2023-05-20T06:39:01;100193.75;;;16.52;76.66
72855;BME280;60991;51.278;22.550;2023-05-20T06:40:31;100196.72;;;16.56;76.32
72855;BME280;60991;51.278;22.550;2023-05-20T06:42:01;100198.09;;;16.58;76.51
72855;BME280;60991;51.278;22.550;2023-05-20T06:43:32;100202.94;;;16.61;76.39
72855;BME280;60991;51.278;22.550;2023-05-20T06:45:02;100205.41;;;16.63;76.62
72855;BME280;60991;51.278;22.550;2023-05-20T06:46:33;100201.41;;;16.66;76.42
72855;BME280;60991;51.278;22.550;2023-05-20T06:48:04;100196.59;;;16.68;76.35
72855;BME280;60991;51.278;22.550;2023-05-20T06:49:34;100195.78;;;16.72;76.24
72855;BME280;60991;51.278;22.550;2023-05-20T06:51:06;100199.59;;;16.76;76.59
72855;BME280;60991;51.278;22.550;2023-05-20T06:52:37;100204.44;;;16.79;76.46
72855;BME280;60991;51.278;22.550;2023-05-20T06:54:07;100206.34;;;16.84;76.40
72855;BME280;60991;51.278;22.550;2023-05-20T06:55:37;100208.78;;;16.85;76.20
72855;BME280;60991;51.278;22.550;2023-05-20T06:57:08;100208.53;;;16.92;76.47
72855;BME280;60991;51.278;22.550;2023-05-20T06:58:38;100209.38;;;16.98;75.94
72855;BME280;60991;51.278;22.550;2023-05-20T07:00:09;100201.88;;;17.00;76.28
72855;BME280;60991;51.278;22.550;2023-05-20T07:01:39;100205.94;;;17.02;76.13
72855;BME280;60991;51.278;22.550;2023-05-20T07:03:09;100209.72;;;17.06;76.29
72855;BME280;60991;51.278;22.550;2023-05-20T07:04:39;100207.56;;;17.08;76.55
72855;BME280;60991;51.278;22.550;2023-05-20T07:06:10;100204.09;;;17.13;76.31
72855;BME280;60991;51.278;22.550;2023-05-20T07:07:40;100204.13;;;17.18;75.98
72855;BME280;60991;51.278;22.550;2023-05-20T07:09:10;100199.31;;;17.20;76.13
72855;BME280;60991;51.278;22.550;2023-05-20T07:10:40;100198.81;;;17.23;76.05
72855;BME280;60991;51.278;22.550;2023-05-20T07:12:10;100197.19;;;17.27;75.83
72855;BME280;60991;51.278;22.550;2023-05-20T07:13:41;100197.22;;;17.32;75.74
72855;BME280;60991;51.278;22.550;2023-05-20T07:15:11;100192.66;;;17.33;75.83
72855;BME280;60991;51.278;22.550;2023-05-20T07:16:41;100192.69;;;17.38;75.71
72855;BME280;60991;51.278;22.550;2023-05-20T07:18:11;100190.00;;;17.38;75.80
72855;BME280;60991;51.278;22.550;2023-05-20T07:19:42;100192.97;;;17.41;75.51
72855;BME280;60991;51.278;22.550;2023-05-20T07:21:12;100190.84;;;17.43;76.10
72855;BME280;60991;51.278;22.550;2023-05-20T07:22:42;100191.09;;;17.47;76.03
72855;BME280;60991;51.278;22.550;2023-05-20T07:24:12;100191.13;;;17.52;76.04
72855;BME280;60991;51.278;22.550;2023-05-20T07:25:42;100195.16;;;17.54;76.16
72855;BME280;60991;51.278;22.550;2023-05-20T07:27:13;100193.03;;;17.56;76.19
72855;BME280;60991;51.278;22.550;2023-05-20T07:28:43;100198.13;;;17.58;76.26
72855;BME280;60991;51.278;22.550;2023-05-20T07:30:13;100188.19;;;17.63;76.04
72855;BME280;60991;51.278;22.550;2023-05-20T07:31:43;100193.06;;;17.67;75.54
72855;BME280;60991;51.278;22.550;2023-05-20T07:33:17;100184.22;;;17.71;75.79
72855;BME280;60991;51.278;22.550;2023-05-20T07:34:47;100186.94;;;17.76;75.72
72855;BME280;60991;51.278;22.550;2023-05-20T07:36:18;100189.09;;;17.79;75.91
72855;BME280;60991;51.278;22.550;2023-05-20T07:37:48;100190.16;;;17.83;76.07
72855;BME280;60991;51.278;22.550;2023-05-20T07:39:18;100183.47;;;17.91;75.99
72855;BME280;60991;51.278;22.550;2023-05-20T07:40:48;100188.31;;;17.94;75.44
72855;BME280;60991;51.278;22.550;2023-05-20T07:42:18;100182.69;;;17.95;75.60
72855;BME280;60991;51.278;22.550;2023-05-20T07:43:49;100185.34;;;18.00;75.38
72855;BME280;60991;51.278;22.550;2023-05-20T07:45:19;100185.38;;;18.06;75.63
72855;BME280;60991;51.278;22.550;2023-05-20T07:46:49;100181.88;;;18.10;75.65
72855;BME280;60991;51.278;22.550;2023-05-20T07:48:19;100179.22;;;18.15;75.70